Banjul/Yundum International Airport

Airport
ICAO code: 
GBYD
IATA Code: 
BJL
Summary
ICAO Region: 
AFI
Territory: 
Location: 
Banjul, Gambia
Serving: 
Banjul
Elevation: 
95 ft
Coordinates: 
Aerial View: 
13° 20' 33.972" N, 16° 39' 5.652" W
Metar
Observation
GBYD 171500Z 34005KT CAVOK 34/17 Q1012 NOSIG
Station
Banjul / Yundum
Date/Time
2022-01-17 15:00:00
Wind direction
340°
Wind speed
05 kts
Lowest cloud amount
clouds and visibility OK
Temperature
34°C
Dew point
17°C
Humidity
36%
QNH
1012 hPa
Weather condition
n/a

International airport serving the city of Banjul, The Gambia.

Climatology

Tropical Savanna climate (Köppen climate classification Aw)

Runways

Designator Length Width Surface Rops
14/32 3600 45 ASP Yes/Yes
Airport map: 
Aerial View: 

SKYbrary Partners:

Safety knowledge contributed by: